Washington, MI (48095)

11:43 AM EDT on September 01, 2015 (GMT -0400)
Washington, MI | | Change Station
CLOSE
Current Station
Personal Weather Station
Location: Washington, MI
Elevation: 846 ft
Nearby Weather Stations

Elev 846 ft 42.79 °N, 83.04 °W | Updated 2 seconds ago

Clear
Clear
79.8 °F
Feels Like 83 °F
N
4.5
Wind Variable Wind from SW
Gusts 5.3 mph

Today
High -- | Low -- °F
--% Chance of Precip.
Yesterday
High -- | Low -- °F
Precip. -- in
6:56 AM 8:07 PM
Waning Gibbous, 88% visible
Pressure 30.11 in
Visibility 5.0 miles
Clouds Few 4300 ft
Heat Index 83 °F
Dew Point 71 °F
Humidity 75%
Rainfall 0.00 in
Snow Depth Not available.
UV 5 out of 12
Pollen 10.60 out of 12
Air Quality Not available.
Flu Activity Not available.
METAR KMTC 011455Z 00000KT 5SM HZ FEW043 27/21 A3009 RMK SLP196 T02670209 51007
Pressure 30.11 in
Visibility 5.0 miles
Clouds Few 4300 ft
Heat Index 83 °F
Dew Point 71 °F
Humidity 75%
Rainfall 0.00 in
Snow Depth Not available.
UV 5 out of 12
Pollen 10.60 out of 12
Air Quality Not available.
Flu Activity Not available.
METAR KMTC 011455Z 00000KT 5SM HZ FEW043 27/21 A3009 RMK SLP196 T02670209 51007

10-Day Weather Forecast

×

Almanac

Astronomy

Sep. 01, 2015 Rise Set
Actual Time
Civil Twilight
Nautical Twilight
Astronomical Twilight
Moon
Length of Visible Light
Length of Day
Tomorrow will be .
, % of the Moon is Illuminated

Today's Extremes

State Highs State Lows

Community

WunderPhotos

Upload Photos

1,851,538 photos uploaded!

WunderBlogs® & News

Nearby

Air Quality

  Air Quality AQ Index Pollutant
Not available.

Snow Depth

Station Depth Elevation

Earthquake Activity

City Distance Mag. Time & Date
Minimum magnitude displayed is 2.5.

Coastal Water Temperatures

Place Temperature

Stations

Nearby Weather Stations

Station Location Temp. Windchill Dew Point Humidity Wind Precip. Elev Updated Type